Home > Products > Valid Products > TAF

000
FTUS44 KCRP 271722
TAFCRP
TAF
KCRP 271722Z 2718/2818 35010KT P6SM FEW035 SCT250
     FM280100 36005KT P6SM BKN250
     FM281000 35018G28KT P6SM SCT025=



000
FTUS44 KCRP 271722
TAFVCT
TAF
KVCT 271722Z 2718/2818 03008KT P6SM SCT025 BKN100
     FM280100 33008KT P6SM SCT025
     FM280400 33008KT P6SM OVC025
     FM281400 34015G22KT P6SM BKN025=



000
FTUS44 KCRP 271722
TAFALI
TAF
KALI 271722Z 2718/2818 34012KT P6SM SCT250
     FM280100 35004KT P6SM SCT250
     FM281000 34018G25KT P6SM SCT030=



000
FTUS44 KCRP 271722
TAFLRD
TAF
KLRD 271722Z 2718/2818 33012KT P6SM SKC
     FM280100 VRB04KT P6SM SKC
     FM280800 33018G25KT P6SM SCT040=



000
FTUS44 KCRP 271722
TAFLRD
TAF
KLRD 271722Z 2718/2818 33012KT P6SM SKC
     FM280100 VRB04KT P6SM SKC
     FM280800 33018G25KT P6SM SCT040=



000
FTUS44 KCRP 271722
TAFALI
TAF
KALI 271722Z 2718/2818 34012KT P6SM SCT250
     FM280100 35004KT P6SM SCT250
     FM281000 34018G25KT P6SM SCT030=



000
FTUS44 KCRP 271722
TAFCRP
TAF
KCRP 271722Z 2718/2818 35010KT P6SM FEW035 SCT250
     FM280100 36005KT P6SM BKN250
     FM281000 35018G28KT P6SM SCT025=



000
FTUS44 KCRP 271722
TAFVCT
TAF
KVCT 271722Z 2718/2818 03008KT P6SM SCT025 BKN100
     FM280100 33008KT P6SM SCT025
     FM280400 33008KT P6SM OVC025
     FM281400 34015G22KT P6SM BKN025=



000
FTUS44 KCRP 271128
TAFVCT
TAF
KVCT 271128Z 2712/2812 VRB03KT P6SM SCT025 BKN100
     FM272100 34012KT P6SM VCTS SCT040CB BKN250
     FM280100 30007KT P6SM BKN025
     FM280900 36010G15KT P6SM SCT020 BKN040=



000
FTUS44 KCRP 271128
TAFCRP
TAF
KCRP 271128Z 2712/2812 36005KT 6SM HZ VCSH SCT030 BKN250
     FM271500 33008KT P6SM SCT035 BKN250
     FM272200 34012KT P6SM VCTS SCT040CB BKN250
     FM280100 VRB03KT P6SM SKC
     FM281000 34015G20KT P6SM BKN025=



000
FTUS44 KCRP 271128
TAFALI
TAF
KALI 271128Z 2712/2812 36007KT P6SM SCT100
     FM271500 33015KT P6SM SCT035 BKN250
     FM272100 34012KT P6SM VCTS SCT040CB BKN250
     FM280100 VRB03KT P6SM SKC
     FM281000 34012G18KT P6SM BKN025=



000
FTUS44 KCRP 271128
TAFLRD
TAF
KLRD 271128Z 2712/2812 35012KT P6SM SKC
     FM280100 VRB03KT P6SM SKC
     FM280900 34012G18KT P6SM SCT040=



000
FTUS44 KCRP 270832 AAA
TAFVCT
TAF AMD
KVCT 270832Z 2709/2806 13008KT 2SM BR VCSH OVC003
      TEMPO 2709/2713 VRB25G35KT 1SM TSRA BR OVC002CB
     FM271500 35012KT P6SM BKN015
     FM272100 34008KT P6SM SCT020 BKN035
     FM280100 30007KT P6SM BKN025=



000
FTUS44 KCRP 270828 AAA
TAFALI
TAF AMD
KALI 270828Z 2708/2806 17012KT 5SM BR OVC013
     FM270900 VRB03KT 5SM BR VCSH SCT009 BKN012
     FM271200 34012G18KT P6SM BKN020
     FM271500 33015KT P6SM SCT035
     FM280100 VRB03KT P6SM SKC=



000
FTUS44 KCRP 270827 AAB
TAFCRP
TAF AMD
KCRP 270827Z 2708/2806 17012G18KT 3SM BR OVC005
     FM271000 16008KT 2SM BR VCSH OVC004
      TEMPO 2710/2712 1SM BR
     FM271300 34012G18KT P6SM SCT009 BKN020
     FM271600 33015G20KT P6SM SCT035
     FM280200 VRB03KT P6SM SKC=



000
FTUS44 KCRP 270824 AAA
TAFLRD
TAF AMD
KLRD 270824Z 2708/2806 30010KT 4SM BR SCT006 BKN018
      TEMPO 2708/2710 2SM TSRA BKN006CB
     FM271000 32012KT 5SM BR SCT012 BKN250
     FM271200 35015G20KT P6SM SCT040
     FM280000 VRB03KT P6SM SKC=



000
FTUS44 KCRP 270553 CCA
TAFVCT
TAF COR
KVCT 270553Z 2706/2806 13006KT 2SM BR OVC004
     FM270900 36005KT 5SM BR VCSH BKN009 OVC012
      TEMPO 2709/2713 VRB25G35KT 3SM TSRA BR BKN014CB
     FM271500 35012KT P6SM BKN015
     FM272100 34008KT P6SM SCT020 BKN035
     FM280100 30007KT P6SM BKN025=



000
FTUS44 KCRP 270540
TAFALI
TAF
KALI 270540Z 2706/2806 14007KT 3SM BR OVC006
     FM270900 VRB03KT 5SM BR SCT009 BKN012
     FM271200 34012G18KT P6SM BKN020
     FM271500 33015KT P6SM SCT035
     FM280100 VRB03KT P6SM SKC=



000
FTUS44 KCRP 270540
TAFCRP
TAF
KCRP 270540Z 2706/2806 14010KT 3SM BR BKN007 OVC013
      TEMPO 2706/2708 1SM BR OVC004
     FM270800 VRB03KT 1SM BR OVC004
      TEMPO 2708/2710 1/2SM FG
     FM271300 34012G18KT P6SM SCT009 BKN020
     FM271600 33015G20KT P6SM SCT035
     FM280200 VRB03KT P6SM SKC=



000
FTUS44 KCRP 270540
TAFLRD
TAF
KLRD 270540Z 2706/2806 15012KT 6SM HZ SKC
     FM270900 VRB03KT 5SM BR SCT012 BKN250
     FM271100 35015G20KT P6SM SCT040
     FM280000 VRB03KT P6SM SKC=



000
FTUS44 KCRP 270540
TAFVCT
TAF
KVCT 270540Z 2706/2806 13006KT 2SM BR OVC004
     FM271000 36005KT 5SM BR VCSH BKN009 OVC012
      TEMPO 2710/2713 VRB15G30KT 3SM TSRA BR BKN014CB
     FM271400 35012KT P6SM BKN015
     FM271800 34009KT P6SM BKN030
     FM272100 34008KT P6SM SCT035=



000
FTUS44 KCRP 270540
TAFCRP
TAF
KCRP 270540Z 2706/2806 14010KT 3SM BR BKN007 OVC013
      TEMPO 2706/2708 1SM BR OVC004
     FM270800 VRB03KT 1SM BR OVC004
      TEMPO 2708/2710 1/2SM FG
     FM271300 34012G18KT P6SM SCT009 BKN020
     FM271600 33015G20KT P6SM SCT035
     FM280200 VRB03KT P6SM SKC=



000
FTUS44 KCRP 270540
TAFLRD
TAF
KLRD 270540Z 2706/2806 15012KT 6SM HZ SKC
     FM270900 VRB03KT 5SM BR SCT012 BKN250
     FM271100 35015G20KT P6SM SCT040
     FM280000 VRB03KT P6SM SKC=



000
FTUS44 KCRP 270540
TAFVCT
TAF
KVCT 270540Z 2706/2806 13006KT 2SM BR OVC004
     FM271000 36005KT 5SM BR VCSH BKN009 OVC012
      TEMPO 2710/2713 VRB15G30KT 3SM TSRA BR BKN014CB
     FM271400 35012KT P6SM BKN015
     FM271800 34009KT P6SM BKN030
     FM272100 34008KT P6SM SCT035=



000
FTUS44 KCRP 270540
TAFALI
TAF
KALI 270540Z 2706/2806 14007KT 3SM BR OVC006
     FM270900 VRB03KT 5SM BR SCT009 BKN012
     FM271200 34012G18KT P6SM BKN020
     FM271500 33015KT P6SM SCT035
     FM280100 VRB03KT P6SM SKC=



000
FTUS44 KCRP 270322 AAC
TAFVCT
TAF AMD
KVCT 270322Z 2703/2724 10008KT 4SM BR OVC005
      TEMPO 2703/2706 2SM BR BKN004 OVC007
     FM270800 35008KT 4SM BR BKN007 BKN012
      TEMPO 2709/2712 VRB15G30KT 4SM TSRA BR BKN014CB
     FM271200 35010KT 5SM BR BKN014
     FM271500 34009KT P6SM SKC=



000
FTUS44 KCRP 270322 AAC
TAFVCT
TAF AMD
KVCT 270322Z 2703/2724 10008KT 4SM BR OVC005
      TEMPO 2703/2706 2SM BR BKN004 OVC007
     FM270800 35008KT 4SM BR BKN007 BKN012
      TEMPO 2709/2712 VRB15G30KT 4SM TSRA BR BKN014CB
     FM271200 35010KT 5SM BR BKN014
     FM271500 34009KT P6SM SKC=



000
FTUS44 KCRP 270300 AAC
TAFCRP
TAF AMD
KCRP 270300Z 2703/2724 14012KT 4SM BR OVC007
      TEMPO 2703/2705 3SM BR OVC005
     FM271000 33007KT 5SM BR SCT007 BKN012
     FM271300 33016KT P6SM SCT025
     FM271600 32015KT P6SM SKC=



000
FTUS44 KCRP 270300 AAC
TAFCRP
TAF AMD
KCRP 270300Z 2703/2724 14012KT 4SM BR OVC007
      TEMPO 2703/2705 3SM BR OVC005
     FM271000 33007KT 5SM BR SCT007 BKN012
     FM271300 33016KT P6SM SCT025
     FM271600 32015KT P6SM SKC=



000
FTUS44 KCRP 270200 AAB
TAFVCT
TAF AMD
KVCT 270200Z 2702/2724 11008KT 5SM BR OVC007
      TEMPO 2702/2704 3SM BR BKN004 OVC007
     FM270800 35008KT 4SM BR BKN007 BKN012
      TEMPO 2709/2712 VRB15G30KT 4SM TSRA BR BKN014CB
     FM271200 35010KT 5SM BR BKN014
     FM271500 34009KT P6SM SKC=



000
FTUS44 KCRP 270200 AAB
TAFVCT
TAF AMD
KVCT 270200Z 2702/2724 11008KT 5SM BR OVC007
      TEMPO 2702/2704 3SM BR BKN004 OVC007
     FM270800 35008KT 4SM BR BKN007 BKN012
      TEMPO 2709/2712 VRB15G30KT 4SM TSRA BR BKN014CB
     FM271200 35010KT 5SM BR BKN014
     FM271500 34009KT P6SM SKC=



000
FTUS44 KCRP 270119 AAB
TAFCRP
TAF AMD
KCRP 270119Z 2701/2724 14012KT 3SM BR OVC006
      TEMPO 2701/2704 2SM BR OVC004
     FM271000 33007KT 5SM BR SCT007 BKN012
     FM271300 33016KT P6SM SCT025
     FM271600 32015KT P6SM SKC=



000
FTUS44 KCRP 270119 AAB
TAFCRP
TAF AMD
KCRP 270119Z 2701/2724 14012KT 3SM BR OVC006
      TEMPO 2701/2704 2SM BR OVC004
     FM271000 33007KT 5SM BR SCT007 BKN012
     FM271300 33016KT P6SM SCT025
     FM271600 32015KT P6SM SKC=



000
FTUS44 KCRP 270052 AAA
TAFVCT
TAF AMD
KVCT 270052Z 2701/2724 13010KT 2SM BR OVC007
      TEMPO 2701/2704 1SM BR BKN004 OVC007
     FM270800 35008KT 4SM BR BKN007 BKN012
      TEMPO 2709/2712 VRB15G30KT 4SM TSRA BR BKN014CB
     FM271200 35010KT 5SM BR BKN014
     FM271500 34009KT P6SM SKC=



000
FTUS44 KCRP 270052 AAA
TAFVCT
TAF AMD
KVCT 270052Z 2701/2724 13010KT 2SM BR OVC007
      TEMPO 2701/2704 1SM BR BKN004 OVC007
     FM270800 35008KT 4SM BR BKN007 BKN012
      TEMPO 2709/2712 VRB15G30KT 4SM TSRA BR BKN014CB
     FM271200 35010KT 5SM BR BKN014
     FM271500 34009KT P6SM SKC=



000
FTUS44 KCRP 262350 CCB
TAFCRP
TAF COR
KCRP 262350Z 2700/2724 14012KT 3SM BR OVC004
      TEMPO 2700/2704 1 1/2SM BR OVC004
     FM271000 33007KT 5SM BR SCT007 BKN012
     FM271300 33016KT P6SM SCT025
     FM271600 32015KT P6SM SKC=



000
FTUS44 KCRP 262350 CCB
TAFCRP
TAF COR
KCRP 262350Z 2700/2724 14012KT 3SM BR OVC004
      TEMPO 2700/2704 1 1/2SM BR OVC004
     FM271000 33007KT 5SM BR SCT007 BKN012
     FM271300 33016KT P6SM SCT025
     FM271600 32015KT P6SM SKC=



000
FTUS44 KCRP 262348 CCA
TAFVCT
TAF COR
KVCT 262348Z 2700/2724 13010KT 3SM BR OVC007
      TEMPO 2700/2701 2SM BR OVC006
     FM270800 35008KT 4SM BR BKN007 BKN012 PROB30 2709/2712
      VRB15G30KT 5SM TSRA BR BKN014CB
     FM271200 35010KT 5SM BR BKN014
     FM271500 34009KT P6SM SKC=



000
FTUS44 KCRP 262348 CCA
TAFVCT
TAF COR
KVCT 262348Z 2700/2724 13010KT 3SM BR OVC007
      TEMPO 2700/2701 2SM BR OVC006
     FM270800 35008KT 4SM BR BKN007 BKN012 PROB30 2709/2712
      VRB15G30KT 5SM TSRA BR BKN014CB
     FM271200 35010KT 5SM BR BKN014
     FM271500 34009KT P6SM SKC=



000
FTUS44 KCRP 262332 CCA
TAFALI
TAF COR
KALI 262332Z 2700/2724 13008KT 6SM HZ SCT025
     FM270100 13009KT 5SM HZ BKN008 BKN015
     FM270300 13007KT 3SM BR BKN005
     FM270900 31006KT 5SM BR SCT009 BKN012
     FM271200 35015G21KT P6SM SCT025
     FM271500 33014KT P6SM SKC=



000
FTUS44 KCRP 262329
TAFLRD
TAF
KLRD 262329Z 2700/2724 13010KT P6SM BKN110
     FM270600 35014KT P6SM SKC
     FM271000 34009KT P6SM SKC=



000
FTUS44 KCRP 262329
TAFCRP
TAF
KCRP 262329Z 2700/2724 14012KT 3SM BR OVC004
     FM271000 33007KT 5SM BR SCT007 BKN012
     FM271300 33016KT P6SM SCT025
     FM271600 32015KT P6SM SKC=



000
FTUS44 KCRP 262329
TAFVCT
TAF
KVCT 262329Z 2700/2724 15012KT 1 1/2SM BR OVC003
     FM270800 35008KT 4SM BR BKN007 BKN012 PROB30 2709/2712
      VRB15G30KT 5SM TSRA BR BKN014CB
     FM271200 35010KT 5SM BR BKN014
     FM271500 34009KT P6SM SKC=



000
FTUS44 KCRP 262329
TAFALI
TAF
KALI 262329Z 2700/2724 15008KT 6SM HZ SCT025
     FM270100 13009KT 5SM HZ BKN008 BKN015
     FM270300 13007KT 3SM BR BKN005
     FM270900 31006KT 5SM BR SCT009 BKN012
     FM271200 35015G21KT P6SM SCT025
     FM271500 33014KT P6SM SKC=



000
FTUS44 KCRP 262232 AAB
TAFVCT
TAF AMD
KVCT 262232Z 2623/2718 14009KT 1SM BR OVC003
     FM270200 14012KT 4SM BR OVC008
     FM270900 06010KT 3SM BR OVC004
     FM271500 35010KT 5SM BR OVC015=



000
FTUS44 KCRP 262232 AAB
TAFVCT
TAF AMD
KVCT 262232Z 2623/2718 14009KT 1SM BR OVC003
     FM270200 14012KT 4SM BR OVC008
     FM270900 06010KT 3SM BR OVC004
     FM271500 35010KT 5SM BR OVC015=



000
FTUS44 KCRP 262113 AAA
TAFVCT
TAF AMD
KVCT 262113Z 2621/2718 14009KT 5SM BR BKN012
     FM270200 14012KT 4SM BR OVC008
     FM270900 06010KT 3SM BR OVC004
     FM271500 35010KT 5SM BR OVC015=



000
FTUS44 KCRP 261731
TAFCRP
TAF
KCRP 261731Z 2618/2718 14008KT 5SM BR BKN008
     FM261900 13012KT P6SM BKN015
     FM270200 14010KT 5SM BR OVC008
     FM271100 04012KT 5SM BR OVC008
     FM271500 33015G22KT 6SM BR OVC015=



000
FTUS44 KCRP 261731
TAFLRD
TAF
KLRD 261731Z 2618/2718 17008KT 6SM BR FEW015
     FM262000 26010KT P6SM SCT110
     FM270100 11010KT P6SM FEW035
     FM270900 35014KT P6SM FEW035=



000
FTUS44 KCRP 261731
TAFVCT
TAF
KVCT 261731Z 2618/2718 13010KT P6SM BKN028
     FM262100 14009KT P6SM BKN015
     FM270200 14012KT 4SM BR OVC008
     FM270900 06010KT 3SM BR OVC004
     FM271500 35010KT 5SM BR OVC015=



000
FTUS44 KCRP 261731
TAFVCT
TAF
KVCT 261731Z 2618/2718 13010KT P6SM BKN028
     FM262100 14009KT P6SM BKN015
     FM270200 14012KT 4SM BR OVC008
     FM270900 06010KT 3SM BR OVC004
     FM271500 35010KT 5SM BR OVC015=



000
FTUS44 KCRP 261731
TAFLRD
TAF
KLRD 261731Z 2618/2718 17008KT 6SM BR FEW015
     FM262000 26010KT P6SM SCT110
     FM270100 11010KT P6SM FEW035
     FM270900 35014KT P6SM FEW035=



000
FTUS44 KCRP 261731
TAFALI
TAF
KALI 261731Z 2618/2718 16005KT P6SM BKN015
     FM261900 15009KT P6SM SCT025
     FM270300 14010KT 5SM BR OVC015
     FM270900 04010KT 3SM BR OVC007
     FM271300 34015G22KT 6SM BR OVC015
     FM271500 34015G22KT P6SM SCT025=



000
FTUS44 KCRP 261731
TAFALI
TAF
KALI 261731Z 2618/2718 16005KT P6SM BKN015
     FM261900 15009KT P6SM SCT025
     FM270300 14010KT 5SM BR OVC015
     FM270900 04010KT 3SM BR OVC007
     FM271300 34015G22KT 6SM BR OVC015
     FM271500 34015G22KT P6SM SCT025=



000
FTUS44 KCRP 261731
TAFCRP
TAF
KCRP 261731Z 2618/2718 14008KT 5SM BR BKN008
     FM261900 13012KT P6SM BKN015
     FM270200 14010KT 5SM BR OVC008
     FM271100 04012KT 5SM BR OVC008
     FM271500 33015G22KT 6SM BR OVC015=



000
FTUS44 KCRP 261126
TAFALI
TAF
KALI 261126Z 2612/2712 16003KT 2SM BR BKN003 OVC014
      TEMPO 2612/2614 1 1/2SM BR OVC002
     FM261400 VRB05KT 4SM BR SCT007 BKN015
     FM261600 16005KT P6SM SCT025 BKN030
     FM261900 15009KT P6SM FEW025 FEW035
     FM270300 14010KT P6SM BKN015
     FM270800 15008KT 4SM BR BKN007=



000
FTUS44 KCRP 261126
TAFVCT
TAF
KVCT 261126Z 2612/2712 17003KT 4SM BR OVC010
      TEMPO 2612/2614 2SM BR BKN009 OVC013
     FM261500 17005KT P6SM SCT015 BKN022
     FM262100 14009KT P6SM BKN025
     FM270400 14012G18KT 4SM BR OVC007=



000
FTUS44 KCRP 261126
TAFLRD
TAF
KLRD 261126Z 2612/2712 13006KT 5SM BR OVC007
     FM261400 21008KT P6SM BKN015
     FM261600 27010KT P6SM SKC=



000
FTUS44 KCRP 261126
TAFCRP
TAF
KCRP 261126Z 2612/2712 15004KT 3SM BR VCSH FEW008 BKN012 OVC017
     FM261400 16004KT 5SM BR SCT009 BKN015 BKN025
     FM261600 18008KT P6SM SCT015 BKN025 BKN035
     FM270500 14011KT 4SM BR OVC015=



000
FTUS44 KCRP 261126
TAFALI
TAF
KALI 261126Z 2612/2712 16003KT 2SM BR BKN003 OVC014
      TEMPO 2612/2614 1 1/2SM BR OVC002
     FM261400 VRB05KT 4SM BR SCT007 BKN015
     FM261600 16005KT P6SM SCT025 BKN030
     FM261900 15009KT P6SM FEW025 FEW035
     FM270300 14010KT P6SM BKN015
     FM270800 15008KT 4SM BR BKN007=



000
FTUS44 KCRP 261126
TAFVCT
TAF
KVCT 261126Z 2612/2712 17003KT 4SM BR OVC010
      TEMPO 2612/2614 2SM BR BKN009 OVC013
     FM261500 17005KT P6SM SCT015 BKN022
     FM262100 14009KT P6SM BKN025
     FM270400 14012G18KT 4SM BR OVC007=



000
FTUS44 KCRP 261126
TAFLRD
TAF
KLRD 261126Z 2612/2712 13006KT 5SM BR OVC007
     FM261400 21008KT P6SM BKN015
     FM261600 27010KT P6SM SKC=



000
FTUS44 KCRP 261126
TAFCRP
TAF
KCRP 261126Z 2612/2712 15004KT 3SM BR VCSH FEW008 BKN012 OVC017
     FM261400 16004KT 5SM BR SCT009 BKN015 BKN025
     FM261600 18008KT P6SM SCT015 BKN025 BKN035
     FM270500 14011KT 4SM BR OVC015=



000
FTUS44 KCRP 261101 AAC
TAFALI
TAF AMD
KALI 261101Z 2611/2706 16003KT 2SM BR BKN003 OVC014
     FM261400 VRB05KT 4SM BR SCT007 BKN015
     FM261600 16005KT P6SM SCT025 BKN035
     FM262100 15009KT P6SM FEW025 SCT035
     FM270300 14010KT P6SM BKN015=



000
FTUS44 KCRP 261101 AAC
TAFALI
TAF AMD
KALI 261101Z 2611/2706 16003KT 2SM BR BKN003 OVC014
     FM261400 VRB05KT 4SM BR SCT007 BKN015
     FM261600 16005KT P6SM SCT025 BKN035
     FM262100 15009KT P6SM FEW025 SCT035
     FM270300 14010KT P6SM BKN015=



000
FTUS44 KCRP 261045 AAB
TAFALI
TAF AMD
KALI 261045Z 2611/2706 16003KT 2SM BR FEW003 OVC014
     FM261400 VRB05KT 4SM BR SCT007 BKN015
     FM261600 16005KT P6SM SCT025 BKN035
     FM262100 15009KT P6SM FEW025 SCT035
     FM270300 14010KT P6SM BKN015=



000
FTUS44 KCRP 261045 AAB
TAFALI
TAF AMD
KALI 261045Z 2611/2706 16003KT 2SM BR FEW003 OVC014
     FM261400 VRB05KT 4SM BR SCT007 BKN015
     FM261600 16005KT P6SM SCT025 BKN035
     FM262100 15009KT P6SM FEW025 SCT035
     FM270300 14010KT P6SM BKN015=



000
FTUS44 KCRP 261026 AAC
TAFCRP
TAF AMD
KCRP 261026Z 2610/2706 15004KT 3SM BR VCTS FEW004CB BKN010 OVC013
      TEMPO 2610/2611 2SM TSRA BR FEW003CB OVC008
     FM261400 16004KT 5SM BR SCT009 BKN015 BKN025
     FM261600 18008KT P6SM SCT015 BKN025 BKN035
     FM261900 13011KT P6SM FEW009 SCT015 BKN024
     FM270500 14011KT 4SM BR OVC015=



000
FTUS44 KCRP 261026 AAC
TAFCRP
TAF AMD
KCRP 261026Z 2610/2706 15004KT 3SM BR VCTS FEW004CB BKN010 OVC013
      TEMPO 2610/2611 2SM TSRA BR FEW003CB OVC008
     FM261400 16004KT 5SM BR SCT009 BKN015 BKN025
     FM261600 18008KT P6SM SCT015 BKN025 BKN035
     FM261900 13011KT P6SM FEW009 SCT015 BKN024
     FM270500 14011KT 4SM BR OVC015=



000
FTUS44 KCRP 260925 AAB
TAFCRP
TAF AMD
KCRP 260925Z 2609/2706 15004KT 3SM BR VCTS FEW004CB BKN008 OVC013
      TEMPO 2609/2610 2SM TSRA BR FEW003CB OVC008
     FM261400 16004KT 5SM BR SCT009 BKN015 BKN025
     FM261600 18008KT P6SM SCT015 BKN025 BKN035
     FM261900 13011KT P6SM FEW009 SCT015 BKN024
     FM270500 14011KT 4SM BR OVC015=



000
FTUS44 KCRP 260925 AAB
TAFCRP
TAF AMD
KCRP 260925Z 2609/2706 15004KT 3SM BR VCTS FEW004CB BKN008 OVC013
      TEMPO 2609/2610 2SM TSRA BR FEW003CB OVC008
     FM261400 16004KT 5SM BR SCT009 BKN015 BKN025
     FM261600 18008KT P6SM SCT015 BKN025 BKN035
     FM261900 13011KT P6SM FEW009 SCT015 BKN024
     FM270500 14011KT 4SM BR OVC015=



000
FTUS44 KCRP 260749 AAA
TAFLRD
TAF AMD
KLRD 260749Z 2608/2706 13006KT P6SM OVC030
      TEMPO 2608/2612 4SM BR BKN006 OVC030
     FM261400 21008KT P6SM SKC
     FM261700 27010KT P6SM SKC=



000
FTUS44 KCRP 260749 AAA
TAFLRD
TAF AMD
KLRD 260749Z 2608/2706 13006KT P6SM OVC030
      TEMPO 2608/2612 4SM BR BKN006 OVC030
     FM261400 21008KT P6SM SKC
     FM261700 27010KT P6SM SKC=



000
FTUS44 KCRP 260721 AAA
TAFVCT
TAF AMD
KVCT 260721Z 2607/2706 17003KT 2SM BR OVC003
      TEMPO 2607/2611 3SM SCT003 OVC010
     FM261400 17003KT 2SM BR SCT005 BKN009 BKN014
     FM261500 17005KT P6SM SCT015 BKN022
     FM262100 14009KT P6SM BKN050
     FM270100 14010KT P6SM OVC025
     FM270400 14012G18KT 4SM BR OVC007=



000
FTUS44 KCRP 260719 AAA
TAFALI
TAF AMD
KALI 260719Z 2607/2706 16003KT 6SM BR FEW003 OVC014
     FM261400 VRB05KT 4SM BR SCT007 BKN015
     FM261600 16005KT P6SM SCT025 BKN035
     FM262100 15009KT P6SM FEW025 SCT035
     FM270300 14010KT P6SM BKN015=



000
FTUS44 KCRP 260529
TAFLRD
TAF
KLRD 260529Z 2606/2706 13006KT P6SM FEW250
      TEMPO 2610/2614 4SM BR SCT007 BKN012
     FM261400 21008KT P6SM SKC
     FM261700 27010KT P6SM SKC=



000
FTUS44 KCRP 260529
TAFVCT
TAF
KVCT 260529Z 2606/2706 16005KT 5SM BR OVC005
     FM260700 17003KT 2SM BR OVC003
     FM261400 17003KT 2SM BR SCT005 BKN009 BKN014
     FM261500 17005KT P6SM SCT015 BKN022
     FM262100 14009KT P6SM BKN050
     FM270100 14010KT P6SM OVC025
     FM270400 14012G18KT 4SM BR OVC007=



000
FTUS44 KCRP 260529
TAFVCT
TAF
KVCT 260529Z 2606/2706 16005KT 5SM BR OVC005
     FM260700 17003KT 2SM BR OVC003
     FM261400 17003KT 2SM BR SCT005 BKN009 BKN014
     FM261500 17005KT P6SM SCT015 BKN022
     FM262100 14009KT P6SM BKN050
     FM270100 14010KT P6SM OVC025
     FM270400 14012G18KT 4SM BR OVC007=



000
FTUS44 KCRP 260529
TAFALI
TAF
KALI 260529Z 2606/2706 14006KT 6SM BR OVC009
     FM260700 16003KT 1SM BR OVC003
     FM261400 VRB05KT 4SM BR SCT007 BKN015
     FM261600 16005KT P6SM SCT025 BKN035
     FM262100 15009KT P6SM FEW025 SCT035
     FM270300 14010KT P6SM BKN015=



000
FTUS44 KCRP 260529
TAFCRP
TAF
KCRP 260529Z 2606/2706 14007KT 4SM BR OVC003
     FM260800 15004KT 3SM BR BKN005
      TEMPO 2609/2613 2SM BR BKN003 OVC006
     FM261400 16004KT 5SM BR SCT009 BKN015 BKN025
     FM261600 18008KT P6SM SCT015 BKN025 BKN035
     FM261900 13011KT P6SM FEW009 SCT015 BKN024
     FM270500 14011KT 4SM BR OVC015=



000
FTUS44 KCRP 260529
TAFALI
TAF
KALI 260529Z 2606/2706 14006KT 6SM BR OVC009
     FM260700 16003KT 1SM BR OVC003
     FM261400 VRB05KT 4SM BR SCT007 BKN015
     FM261600 16005KT P6SM SCT025 BKN035
     FM262100 15009KT P6SM FEW025 SCT035
     FM270300 14010KT P6SM BKN015=



000
FTUS44 KCRP 260529
TAFLRD
TAF
KLRD 260529Z 2606/2706 13006KT P6SM FEW250
      TEMPO 2610/2614 4SM BR SCT007 BKN012
     FM261400 21008KT P6SM SKC
     FM261700 27010KT P6SM SKC=



000
FTUS44 KCRP 260529
TAFCRP
TAF
KCRP 260529Z 2606/2706 14007KT 4SM BR OVC003
     FM260800 15004KT 3SM BR BKN005
      TEMPO 2609/2613 2SM BR BKN003 OVC006
     FM261400 16004KT 5SM BR SCT009 BKN015 BKN025
     FM261600 18008KT P6SM SCT015 BKN025 BKN035
     FM261900 13011KT P6SM FEW009 SCT015 BKN024
     FM270500 14011KT 4SM BR OVC015=



000
FTUS44 KCRP 260158 AAB
TAFALI
TAF AMD
KALI 260158Z 2602/2624 12008KT P6SM OVC009
     FM260500 14006KT 4SM BR OVC007
     FM260700 16003KT 1/2SM FG OVC003
     FM261400 VRB05KT 4SM BR SCT007 BKN015
     FM261600 16005KT P6SM SCT025 BKN035
     FM262100 21006KT P6SM SKC=



000
FTUS44 KCRP 260158 AAB
TAFALI
TAF AMD
KALI 260158Z 2602/2624 12008KT P6SM OVC009
     FM260500 14006KT 4SM BR OVC007
     FM260700 16003KT 1/2SM FG OVC003
     FM261400 VRB05KT 4SM BR SCT007 BKN015
     FM261600 16005KT P6SM SCT025 BKN035
     FM262100 21006KT P6SM SKC=



000
FTUS44 KCRP 260150 AAB
TAFCRP
TAF AMD
KCRP 260150Z 2602/2624 12009KT P6SM SCT009 BKN015
     FM260400 14007KT 4SM BR BKN007
     FM260800 15004KT 2SM BR BKN005
      TEMPO 2609/2613 1SM BR BKN003 OVC006
     FM261400 16004KT 5SM BR SCT009 BKN015 BKN025
     FM261600 18008KT P6SM SCT015 SCT025 BKN035
     FM262000 13012KT P6SM FEW009 SCT015 BKN024=



000
FTUS44 KCRP 260026 AAA
TAFALI
TAF AMD
KALI 260026Z 2600/2624 12008KT P6SM FEW015
      TEMPO 2600/2604 BKN015
     FM260500 14006KT 4SM BR SCT007
     FM260700 16003KT 1/2SM FG OVC003
     FM261400 VRB05KT 4SM BR SCT007 BKN015
     FM261600 16005KT P6SM SCT025 BKN035
     FM262100 21006KT P6SM SKC=



000
FTUS44 KCRP 260026 AAA
TAFALI
TAF AMD
KALI 260026Z 2600/2624 12008KT P6SM FEW015
      TEMPO 2600/2604 BKN015
     FM260500 14006KT 4SM BR SCT007
     FM260700 16003KT 1/2SM FG OVC003
     FM261400 VRB05KT 4SM BR SCT007 BKN015
     FM261600 16005KT P6SM SCT025 BKN035
     FM262100 21006KT P6SM SKC=



000
FTUS44 KCRP 260023 AAA
TAFCRP
TAF AMD
KCRP 260023Z 2600/2624 12009KT P6SM FEW009 BKN015
      TEMPO 2600/2604 SCT015
     FM260400 14007KT 4SM BR SCT007
     FM260800 15004KT 2SM BR BKN005
      TEMPO 2609/2613 1SM BR BKN003 OVC006
     FM261400 16004KT 5SM BR SCT009 BKN015 BKN025
     FM261600 18008KT P6SM SCT015 SCT025 BKN035
     FM262000 13012KT P6SM FEW009 SCT015 BKN024=



000
FTUS44 KCRP 260023 AAA
TAFCRP
TAF AMD
KCRP 260023Z 2600/2624 12009KT P6SM FEW009 BKN015
      TEMPO 2600/2604 SCT015
     FM260400 14007KT 4SM BR SCT007
     FM260800 15004KT 2SM BR BKN005
      TEMPO 2609/2613 1SM BR BKN003 OVC006
     FM261400 16004KT 5SM BR SCT009 BKN015 BKN025
     FM261600 18008KT P6SM SCT015 SCT025 BKN035
     FM262000 13012KT P6SM FEW009 SCT015 BKN024=



000
FTUS44 KCRP 252329
TAFVCT
TAF
KVCT 252329Z 2600/2624 16008KT P6SM FEW012
     FM260500 16005KT 4SM BR SCT007
     FM260700 17003KT 1/2SM FG BKN003
     FM261400 17003KT 2SM BR SCT005 BKN009 BKN014
     FM261500 17005KT P6SM SCT015 BKN022
     FM261700 16011KT P6SM SCT025 BKN035=



000
FTUS44 KCRP 252329
TAFALI
TAF
KALI 252329Z 2600/2624 12008KT P6SM FEW015
     FM260500 14006KT 4SM BR SCT007
     FM260700 16003KT 1/2SM FG OVC003
     FM261400 VRB05KT 4SM BR SCT007 BKN015
     FM261600 16005KT P6SM SCT025 BKN035
     FM262100 21006KT P6SM SKC=



000
FTUS44 KCRP 252329
TAFCRP
TAF
KCRP 252329Z 2600/2624 12009KT P6SM FEW009 BKN015
     FM260400 14007KT 4SM BR SCT007
     FM260800 15004KT 2SM BR BKN005
      TEMPO 2609/2613 1SM BR BKN003 OVC006
     FM261400 16004KT 5SM BR SCT009 BKN015 BKN025
     FM261600 18008KT P6SM SCT015 SCT025 BKN035
     FM262000 13012KT P6SM FEW009 SCT015 BKN024=



000
FTUS44 KCRP 252329
TAFLRD
TAF
KLRD 252329Z 2600/2624 VRB06KT P6SM SKC
      TEMPO 2610/2614 4SM BR SCT007 BKN012
     FM261400 22005KT P6SM SKC
     FM261700 29010KT P6SM SKC=



000
FTUS44 KCRP 252329
TAFCRP
TAF
KCRP 252329Z 2600/2624 12009KT P6SM FEW009 BKN015
     FM260400 14007KT 4SM BR SCT007
     FM260800 15004KT 2SM BR BKN005
      TEMPO 2609/2613 1SM BR BKN003 OVC006
     FM261400 16004KT 5SM BR SCT009 BKN015 BKN025
     FM261600 18008KT P6SM SCT015 SCT025 BKN035
     FM262000 13012KT P6SM FEW009 SCT015 BKN024=



000
FTUS44 KCRP 252329
TAFLRD
TAF
KLRD 252329Z 2600/2624 VRB06KT P6SM SKC
      TEMPO 2610/2614 4SM BR SCT007 BKN012
     FM261400 22005KT P6SM SKC
     FM261700 29010KT P6SM SKC=



000
FTUS44 KCRP 252329
TAFALI
TAF
KALI 252329Z 2600/2624 12008KT P6SM FEW015
     FM260500 14006KT 4SM BR SCT007
     FM260700 16003KT 1/2SM FG OVC003
     FM261400 VRB05KT 4SM BR SCT007 BKN015
     FM261600 16005KT P6SM SCT025 BKN035
     FM262100 21006KT P6SM SKC=



000
FTUS44 KCRP 252329
TAFVCT
TAF
KVCT 252329Z 2600/2624 16008KT P6SM FEW012
     FM260500 16005KT 4SM BR SCT007
     FM260700 17003KT 1/2SM FG BKN003
     FM261400 17003KT 2SM BR SCT005 BKN009 BKN014
     FM261500 17005KT P6SM SCT015 BKN022
     FM261700 16011KT P6SM SCT025 BKN035=



000
FTUS44 KCRP 252109 AAA
TAFALI
TAF AMD
KALI 252109Z 2521/2618 VRB05KT P6SM FEW035
      TEMPO 2521/2523 BKN028
     FM260300 14005KT 5SM BR BKN010
     FM260700 15006KT 4SM BR OVC008
     FM261500 15005KT P6SM BKN015=



000
FTUS44 KCRP 252102 AAA
TAFCRP
TAF AMD
KCRP 252102Z 2521/2618 09009KT P6SM FEW012 SCT020
      TEMPO 2521/2524 BKN020
     FM260000 13007KT P6SM FEW015 FEW040
     FM260500 14007KT 6SM BR BKN015
     FM260900 15004KT 4SM BR OVC008
     FM261500 15004KT P6SM BKN010=



000
FTUS44 KCRP 251729
TAFVCT
TAF
KVCT 251729Z 2518/2618 VRB04KT P6SM SKC
     FM252000 16008KT P6SM SKC
     FM260200 17005KT 4SM BR BKN015
     FM260700 18003KT 1SM BR OVC005
     FM261600 15006KT P6SM BKN015=



000
FTUS44 KCRP 251729
TAFLRD
TAF
KLRD 251729Z 2518/2618 36008KT P6SM SKC
     FM260700 VRB04KT 4SM BR FEW020
     FM261500 25005KT P6SM SCT150=



000
FTUS44 KCRP 251729
TAFCRP
TAF
KCRP 251729Z 2518/2618 15009KT P6SM SCT050
     FM260000 13007KT P6SM FEW015 FEW040
     FM260500 14007KT 6SM BR BKN015
     FM260900 15004KT 4SM BR OVC008
     FM261500 15004KT P6SM BKN010=



000
FTUS44 KCRP 251729
TAFALI
TAF
KALI 251729Z 2518/2618 VRB05KT P6SM FEW035
     FM260300 14005KT 5SM BR BKN010
     FM260700 15006KT 4SM BR OVC008
     FM261500 15005KT P6SM BKN015=



000
FTUS44 KCRP 251505 AAA
TAFVCT
TAF AMD
KVCT 251505Z 2515/2612 VRB04KT 6SM BR BKN035
     FM252000 16005KT 6SM BR SCT025 SCT035
     FM260200 17005KT 4SM BR BKN015
     FM260700 18003KT 1 1/2SM BR OVC005=



000
FTUS44 KCRP 251240 AAC
TAFCRP
TAF AMD
KCRP 251240Z 2513/2612 VRB06KT 6SM BR FEW030 SCT200
      TEMPO 2513/2514 29015G30KT BKN012
     FM251500 VRB06KT P6SM SCT010 BKN020
     FM251800 15009KT P6SM BKN025 BKN035
      TEMPO 2520/2524 SCT015 BKN035
     FM260000 13007KT P6SM OVC040
     FM260500 14007KT 6SM BR BKN015
     FM260900 15004KT 4SM BR OVC008=



000
FTUS44 KCRP 251219 AAB
TAFCRP
TAF AMD
KCRP 251219Z 2512/2612 VRB06KT 6SM BR FEW030 SCT200
      TEMPO 2512/2513 29015G30KT
     FM251500 VRB06KT P6SM SCT010 BKN020
     FM251800 15009KT P6SM BKN025 BKN035
      TEMPO 2520/2524 SCT015 BKN035
     FM260000 13007KT P6SM OVC040
     FM260500 14007KT 6SM BR BKN015
     FM260900 15004KT 4SM BR OVC008=



000
FTUS44 KCRP 251214 AAA
TAFCRP
TAF AMD
KCRP 251214Z 2512/2612 VRB06KT 6SM BR FEW030 SCT200
      TEMPO 2512/2513 29015G22KT
     FM251500 VRB06KT P6SM SCT010 BKN020
     FM251800 15009KT P6SM BKN025 BKN035
      TEMPO 2520/2524 SCT015 BKN035
     FM260000 13007KT P6SM OVC040
     FM260500 14007KT 6SM BR BKN015
     FM260900 15004KT 4SM BR OVC008=



000
FTUS44 KCRP 251214 AAA
TAFCRP
TAF AMD
KCRP 251214Z 2512/2612 VRB06KT 6SM BR FEW030 SCT200
      TEMPO 2512/2513 29015G22KT
     FM251500 VRB06KT P6SM SCT010 BKN020
     FM251800 15009KT P6SM BKN025 BKN035
      TEMPO 2520/2524 SCT015 BKN035
     FM260000 13007KT P6SM OVC040
     FM260500 14007KT 6SM BR BKN015
     FM260900 15004KT 4SM BR OVC008=



000
FTUS44 KCRP 251131
TAFVCT
TAF
KVCT 251131Z 2512/2612 VRB06KT 5SM BR VCTS OVC012CB
      TEMPO 2512/2513 2SM TSRA OVC010CB
     FM251400 VRB04KT 6SM BR BKN015
     FM252000 16005KT 6SM BR SCT025 SCT035
     FM260200 17005KT 4SM BR BKN015
     FM260700 18003KT 1 1/2SM BR OVC005=



000
FTUS44 KCRP 251131
TAFALI
TAF
KALI 251131Z 2512/2612 18008KT 5SM BR BKN023
      TEMPO 2512/2513 2SM BR
     FM251500 VRB05KT P6SM BKN015
     FM251800 VRB05KT P6SM SCT025 BKN035
     FM260300 14005KT 5SM BR OVC050
     FM260700 15006KT 4SM BR OVC008=



000
FTUS44 KCRP 251131
TAFCRP
TAF
KCRP 251131Z 2512/2612 VRB06KT 6SM BR FEW030 SCT200
     FM251500 VRB06KT P6SM SCT010 BKN020
     FM251800 15009KT P6SM BKN025 BKN035
      TEMPO 2520/2524 SCT015 BKN035
     FM260000 13007KT P6SM OVC040
     FM260500 14007KT 6SM BR BKN015
     FM260900 15004KT 4SM BR OVC008=



000
FTUS44 KCRP 251131
TAFLRD
TAF
KLRD 251131Z 2512/2612 VRB04KT 2SM BR SCT006
      TEMPO 2512/2514 1SM BR BKN006
     FM251400 36008KT P6SM SCT030
     FM261000 14005KT 4SM BR FEW030=



000
FTUS44 KCRP 251131
TAFVCT
TAF
KVCT 251131Z 2512/2612 VRB06KT 5SM BR VCTS OVC012CB
      TEMPO 2512/2513 2SM TSRA OVC010CB
     FM251400 VRB04KT 6SM BR BKN015
     FM252000 16005KT 6SM BR SCT025 SCT035
     FM260200 17005KT 4SM BR BKN015
     FM260700 18003KT 1 1/2SM BR OVC005=



000
FTUS44 KCRP 251131
TAFALI
TAF
KALI 251131Z 2512/2612 18008KT 5SM BR BKN023
      TEMPO 2512/2513 2SM BR
     FM251500 VRB05KT P6SM BKN015
     FM251800 VRB05KT P6SM SCT025 BKN035
     FM260300 14005KT 5SM BR OVC050
     FM260700 15006KT 4SM BR OVC008=



000
FTUS44 KCRP 251131
TAFCRP
TAF
KCRP 251131Z 2512/2612 VRB06KT 6SM BR FEW030 SCT200
     FM251500 VRB06KT P6SM SCT010 BKN020
     FM251800 15009KT P6SM BKN025 BKN035
      TEMPO 2520/2524 SCT015 BKN035
     FM260000 13007KT P6SM OVC040
     FM260500 14007KT 6SM BR BKN015
     FM260900 15004KT 4SM BR OVC008=



000
FTUS44 KCRP 251131
TAFLRD
TAF
KLRD 251131Z 2512/2612 VRB04KT 2SM BR SCT006
      TEMPO 2512/2514 1SM BR BKN006
     FM251400 36008KT P6SM SCT030
     FM261000 14005KT 4SM BR FEW030=



000
FTUS44 KCRP 251006 AAB
TAFVCT
TAF AMD
KVCT 251006Z 2510/2606 VRB06KT 5SM BR SCT007 BKN011
      TEMPO 2510/2512 2SM BR BKN007 BKN011
     FM251200 VRB06KT 5SM BR VCTS BKN007CB
      TEMPO 2512/2513 VRB30G40KT 1SM +TSRA BKN007CB
     FM251600 16005KT 6SM BR SCT025 BKN035
     FM260200 17005KT 4SM BR BKN015=



000
FTUS44 KCRP 250916 AAA
TAFLRD
TAF AMD
KLRD 250916Z 2509/2606 VRB06KT 5SM HZ SCT020
      TEMPO 2509/2512 2SM BR
     FM251200 VRB04KT P6SM BKN015
     FM251600 36008KT P6SM SCT030=



000
FTUS44 KCRP 250833 AAA
TAFALI
TAF AMD
KALI 250833Z 2509/2606 12006KT 5SM BR SCT015 SCT040
      TEMPO 2509/2511 2SM BR BKN015
     FM251100 VRB04KT 5SM BR BKN006
     FM251500 VRB05KT P6SM BKN015
     FM251800 VRB05KT P6SM SCT025 BKN035
     FM260300 14005KT 5SM BR OVC050=



000
FTUS44 KCRP 250807 AAB
TAFCRP
TAF AMD
KCRP 250807Z 2508/2606 13016KT 4SM BR VCTS SCT014CB BKN030 BKN050
      TEMPO 2508/2509 4SM TSRA BR BKN014CB
     FM250900 VRB05KT 6SM BR SCT005 BKN012
     FM251500 VRB06KT P6SM SCT010 BKN018
     FM251800 15009KT P6SM BKN015 BKN035
      TEMPO 2520/2524 SCT015 BKN035
     FM260000 13007KT P6SM OVC040
     FM260500 14007KT 6SM BR BKN015=



000
FTUS44 KCRP 250807 AAB
TAFCRP
TAF AMD
KCRP 250807Z 2508/2606 13016KT 4SM BR VCTS SCT014CB BKN030 BKN050
      TEMPO 2508/2509 4SM TSRA BR BKN014CB
     FM250900 VRB05KT 6SM BR SCT005 BKN012
     FM251500 VRB06KT P6SM SCT010 BKN018
     FM251800 15009KT P6SM BKN015 BKN035
      TEMPO 2520/2524 SCT015 BKN035
     FM260000 13007KT P6SM OVC040
     FM260500 14007KT 6SM BR BKN015=



000
FTUS44 KCRP 250757 AAA
TAFVCT
TAF AMD
KVCT 250757Z 2508/2606 VRB06KT 5SM BR SCT007 BKN011
      TEMPO 2508/2512 2SM BR BKN007 BKN011
     FM251600 16005KT 6SM BR SCT025 BKN035
     FM260200 17005KT 4SM BR BKN015=



000
FTUS44 KCRP 250757 AAA
TAFVCT
TAF AMD
KVCT 250757Z 2508/2606 VRB06KT 5SM BR SCT007 BKN011
      TEMPO 2508/2512 2SM BR BKN007 BKN011
     FM251600 16005KT 6SM BR SCT025 BKN035
     FM260200 17005KT 4SM BR BKN015=



000
FTUS44 KCRP 250538
TAFCRP
TAF
KCRP 250538Z 2506/2606 13015KT 4SM BR VCTS SCT024CB BKN030 BKN050
      TEMPO 2506/2508 4SM TSRA BR BKN015CB
     FM250900 VRB05KT 6SM BR SCT005 BKN012
     FM251500 VRB06KT P6SM SCT010 BKN018
     FM251800 15009KT P6SM BKN015 BKN035
      TEMPO 2520/2524 SCT015 BKN035
     FM260000 13007KT P6SM OVC040
     FM260500 14007KT 6SM BR BKN015=



000
FTUS44 KCRP 250538
TAFVCT
TAF
KVCT 250538Z 2506/2606 VRB06KT 5SM BR VCTS SCT022CB BKN028
     FM250800 VRB06KT 5SM BR SCT007 BKN014
      TEMPO 2510/2514 2SM BR BKN007 BKN014
     FM251600 16005KT 6SM BR SCT025 BKN035
     FM260200 17005KT 4SM BR BKN015=



000
FTUS44 KCRP 250538
TAFLRD
TAF
KLRD 250538Z 2506/2606 VRB06KT 5SM HZ SCT020
     FM251000 VRB04KT P6SM BKN015
     FM251600 36008KT P6SM SCT030=



000
FTUS44 KCRP 250538
TAFALI
TAF
KALI 250538Z 2506/2606 VRB06KT 4SM BR BKN013 OVC026
      TEMPO 2506/2508 TSRA OVC025CB
     FM250800 12006KT 6SM BR BKN015
     FM251100 VRB04KT 5SM BR BKN006
     FM251500 VRB05KT P6SM BKN015
     FM251800 VRB05KT P6SM SCT025 BKN035
     FM260300 14005KT 5SM BR OVC050=



000
FTUS44 KCRP 250329 AAE
TAFVCT
TAF AMD
KVCT 250329Z 2503/2524 16009KT 5SM BR VCTS SCT008 SCT015CB BKN035
      TEMPO 2503/2507 4SM -TSRA BR SCT007 BKN015CB
     FM250900 15007KT 5SM BR SCT007 BKN014
     FM251600 18008KT P6SM SCT025 BKN035=



000
FTUS44 KCRP 250327 AAD
TAFVCT
TAF AMD
KVCT 250327Z 2503/2524 16009KT 5SM BR VCTS SCT008 SCT015CB BKN035
      TEMPO 2503/2507 4SM -TSRA BR BKN007 BKN015CB
     FM250900 15007KT 5SM BR SCT007 BKN014
     FM251600 18008KT P6SM SCT025 BKN035=



000
FTUS44 KCRP 250307 AAD
TAFCRP
TAF AMD
KCRP 250307Z 2503/2524 15013KT 4SM BR VCTS SCT009 SCT014CB BKN030
      TEMPO 2504/2508 4SM -TSRA BR SCT007 BKN015CB
     FM250900 VRB05KT 6SM BR SCT005 BKN012
     FM251500 VRB06KT P6SM SCT010 BKN018
     FM251800 15009KT P6SM SCT015 BKN035=



000
FTUS44 KCRP 250304 AAC
TAFVCT
TAF AMD
KVCT 250304Z 2503/2524 16009KT 5SM BR VCTS SCT008 SCT015CB BKN035
      TEMPO 2505/2509 4SM -TSRA BR BKN007 BKN015CB
     FM250900 15007KT 5SM BR SCT007 BKN014
     FM251600 18008KT P6SM SCT025 BKN035=



000
FTUS44 KCRP 250218 AAC
TAFCRP
TAF AMD
KCRP 250218Z 2502/2524 15013KT 4SM HZ SCT009 SCT014
      TEMPO 2505/2509 -TSRA SCT007 BKN015CB
     FM250900 VRB05KT 6SM BR SCT005 BKN012
     FM251500 VRB06KT P6SM SCT010 BKN018
     FM251800 15009KT P6SM SCT015 BKN035=



000
FTUS44 KCRP 250216 AAB
TAFVCT
TAF AMD
KVCT 250216Z 2502/2524 15009KT 6SM BR SCT008 BKN015
      TEMPO 2505/2509 4SM -TSRA BR BKN007 BKN015CB
     FM250900 15007KT 5SM BR SCT007 BKN014
     FM251600 18008KT P6SM SCT025 BKN035=



000
FTUS44 KCRP 250216 AAB
TAFVCT
TAF AMD
KVCT 250216Z 2502/2524 15009KT 6SM BR SCT008 BKN015
      TEMPO 2505/2509 4SM -TSRA BR BKN007 BKN015CB
     FM250900 15007KT 5SM BR SCT007 BKN014
     FM251600 18008KT P6SM SCT025 BKN035=



000
FTUS44 KCRP 250118 AAA
TAFVCT
TAF AMD
KVCT 250118Z 2501/2524 16008KT 4SM BR SCT015 BKN025
     FM250200 15009KT P6SM BKN008 BKN015
      TEMPO 2505/2509 4SM -TSRA BR BKN007 BKN015CB
     FM250900 15007KT 5SM BR SCT007 BKN014
     FM251600 18008KT P6SM SCT025 BKN035=



000
FTUS44 KCRP 250101 AAA
TAFALI
TAF AMD
KALI 250101Z 2501/2524 11007KT 4SM BR BKN014 BKN024
      TEMPO 2504/2508 VRB15G30KT TSRA OVC025CB
     FM250800 12006KT 6SM BR BKN015
     FM251100 VRB04KT 5SM BR BKN006
     FM251400 VRB05KT P6SM BKN015
     FM251800 VRB05KT P6SM SCT025 BKN035=



000
FTUS44 KCRP 250007 AAA
TAFCRP
TAF AMD
KCRP 250007Z 2500/2524 15013KT 4SM HZ SCT009 BKN014
      TEMPO 2505/2509 -TSRA SCT007 BKN015CB
     FM250900 VRB05KT 6SM BR SCT005 BKN012
     FM251500 VRB06KT P6SM SCT010 BKN018
     FM251800 15009KT P6SM SCT015 BKN035=



000
FTUS44 KCRP 242324
TAFALI
TAF
KALI 242324Z 2500/2524 11007KT P6SM BKN014 BKN024
      TEMPO 2504/2508 VRB15G30KT TSRA OVC025CB
     FM250800 12006KT 6SM BR BKN015
     FM251100 VRB04KT 5SM BR BKN006
     FM251400 VRB05KT P6SM BKN015
     FM251800 VRB05KT P6SM SCT025 BKN035=



000
FTUS44 KCRP 242324
TAFCRP
TAF
KCRP 242324Z 2500/2524 15013KT 6SM HZ SCT009 BKN014
      TEMPO 2505/2509 -TSRA SCT007 BKN015CB
     FM250900 VRB05KT 6SM BR SCT005 BKN012
     FM251500 VRB06KT P6SM SCT010 BKN018
     FM251800 15009KT P6SM SCT015 BKN035=



000
FTUS44 KCRP 242324
TAFVCT
TAF
KVCT 242324Z 2500/2524 16008KT P6SM SCT015 BKN025
     FM250200 15009KT P6SM BKN008 BKN015
      TEMPO 2505/2509 4SM -TSRA BR BKN007 BKN015CB
     FM250900 15007KT 5SM BR SCT007 BKN014
     FM251600 18008KT P6SM SCT025 BKN035=



000
FTUS44 KCRP 242324
TAFLRD
TAF
KLRD 242324Z 2500/2524 14010KT 5SM HZ SCT030
      TEMPO 2501/2503 VRB15G30KT 3SM TSRA BR BKN035CB
     FM251000 VRB04KT P6SM BKN015
      TEMPO 2511/2514 BKN008
     FM251600 36008KT P6SM SCT030=



000
FTUS44 KCRP 242128 AAA
TAFVCT
TAF AMD
KVCT 242128Z 2421/2518 17014KT P6SM SCT020
     FM250200 17009KT P6SM VCTS OVC010CB
     FM250400 14007KT 5SM BR OVC004
      TEMPO 2510/2512 2SM BR
     FM251600 20003KT P6SM SCT020=



000
FTUS44 KCRP 242109 AAB
TAFCRP
TAF AMD
KCRP 242109Z 2421/2518 15014KT P6SM SCT016 SCT035
     FM250000 15009KT P6SM VCTS SCT020CB
      TEMPO 2500/2504 VRB20G30KT TSRA BKN020CB
     FM250900 16010KT 6SM BR BKN005
     FM251400 12006KT P6SM SCT010 BKN030=



000
FTUS44 KCRP 242108 AAA
TAFALI
TAF AMD
KALI 242108Z 2421/2518 15010KT P6SM SCT025 BKN035
     FM250000 11007KT P6SM VCTS SCT015CB
      TEMPO 2500/2504 VRB20G30KT TSRA OVC025CB
     FM250800 12006KT 5SM BR BKN015
     FM251500 VRB05KT P6SM SCT025=



000
FTUS44 KCRP 242107 AAA
TAFLRD
TAF AMD
KLRD 242107Z 2421/2518 15012KT P6SM SCT035
     FM242300 14010KT P6SM VCTS BKN035CB
     FM250300 16005KT P6SM SCT030 BKN150
     FM251000 VRB04KT P6SM BKN015
     FM251500 32006KT P6SM SCT030=



000
FTUS44 KCRP 242107 AAA
TAFLRD
TAF AMD
KLRD 242107Z 2421/2518 15012KT P6SM SCT035
     FM242300 14010KT P6SM VCTS BKN035CB
     FM250300 16005KT P6SM SCT030 BKN150
     FM251000 VRB04KT P6SM BKN015
     FM251500 32006KT P6SM SCT030=



    US Dept of Commerce
    National Oceanic and Atmospheric Administration
    National Weather Service
    1325 East West Highway
    Silver Spring, MD 20910
    Page Author: NWS Internet Services Team
Disclaimer
Information Quality
Credits
Glossary
Privacy Policy
Freedom of Information Act (FOIA)
About Us
Career Opportunities